Time;durP1;ratioP1;P1;durP2;ratioP2;P2;SDS_P1;SDS_P2;PMS_P1;PMS_P2;Temp;Humidity;BMP_temperature;BMP_pressure;BME280_temperature;BME280_humidity;BME280_pressure;Samples;Min_cycle;Max_cycle;Signal;HPM_P1;HPM_P2
2022/10/18 00:00:33;;;;;;;91.53;25.40;;;13.40;99.90;;;;;;4947305;28;20043;-70
2022/10/18 00:02:58;;;;;;;163.15;25.13;;;13.40;99.90;;;;;;4950356;28;20047;-72
2022/10/18 00:05:24;;;;;;;72.38;28.30;;;13.30;99.90;;;;;;4944661;28;20071;-74
2022/10/18 00:07:49;;;;;;;79.82;31.38;;;13.20;99.90;;;;;;4949068;28;20558;-73
2022/10/18 00:10:15;;;;;;;81.85;31.92;;;13.20;99.90;;;;;;4952573;28;20047;-70
2022/10/18 00:12:41;;;;;;;77.10;33.38;;;13.20;99.90;;;;;;4948499;28;20045;-72
2022/10/18 00:15:07;;;;;;;147.65;34.97;;;13.20;99.90;;;;;;4952020;28;20110;-70
2022/10/18 00:17:37;;;;;;;115.95;35.55;;;13.20;99.90;;;;;;4951819;28;20093;-70
2022/10/18 00:20:04;;;;;;;221.00;40.38;;;13.20;99.90;;;;;;4950627;28;20548;-73
2022/10/18 00:22:30;;;;;;;153.60;32.05;;;13.20;99.90;;;;;;4955114;28;20062;-70
2022/10/18 00:24:55;;;;;;;144.10;33.58;;;13.20;99.90;;;;;;4947642;28;20047;-70
2022/10/18 00:27:21;;;;;;;50.00;25.80;;;13.20;99.90;;;;;;4946347;28;20090;-72
2022/10/18 00:29:46;;;;;;;35.08;22.90;;;13.20;99.90;;;;;;4950285;28;20130;-76
2022/10/18 00:32:12;;;;;;;109.15;28.55;;;13.10;99.90;;;;;;4942082;28;20051;-70
2022/10/18 00:34:39;;;;;;;43.65;24.23;;;13.10;99.90;;;;;;4946155;28;20130;-70
2022/10/18 00:37:05;;;;;;;88.28;20.58;;;13.10;99.90;;;;;;4945861;28;20038;-70
2022/10/18 00:39:31;;;;;;;123.80;17.85;;;13.10;99.90;;;;;;4945492;28;20109;-70
2022/10/18 00:41:56;;;;;;;42.78;18.95;;;13.10;99.90;;;;;;4948901;28;20258;-69
2022/10/18 00:44:25;;;;;;;139.13;20.88;;;13.00;99.90;;;;;;4950015;28;20053;-72
2022/10/18 00:46:54;;;;;;;102.18;21.58;;;13.00;99.90;;;;;;4946708;28;20057;-70
2022/10/18 00:49:23;;;;;;;108.40;19.80;;;13.00;99.90;;;;;;4947820;28;20078;-73
2022/10/18 00:51:55;;;;;;;32.75;19.30;;;13.00;99.90;;;;;;4951362;28;20043;-70
2022/10/18 00:54:22;;;;;;;29.65;18.90;;;13.00;99.90;;;;;;4964692;28;20043;-70
2022/10/18 00:56:48;;;;;;;31.15;19.52;;;12.90;99.90;;;;;;4948075;28;20050;-76
2022/10/18 00:59:16;;;;;;;47.97;22.25;;;12.90;99.90;;;;;;4950185;28;20437;-70
2022/10/18 01:01:42;;;;;;;38.30;18.60;;;13.00;99.90;;;;;;4949862;28;20446;-70
2022/10/18 01:04:08;;;;;;;60.55;19.58;;;12.90;99.90;;;;;;4949914;28;20613;-70
2022/10/18 01:06:51;;;;;;;47.58;16.27;;;12.90;99.90;;;;;;4939898;28;20049;-70
2022/10/18 01:09:32;;;;;;;30.33;9.43;;;12.90;99.90;;;;;;4949477;28;20506;-71
2022/10/18 01:12:23;;;;;;;108.78;11.23;;;12.80;99.90;;;;;;4950712;28;20043;-70
2022/10/18 01:14:53;;;;;;;83.80;12.02;;;12.80;99.90;;;;;;4941138;28;20044;-71
2022/10/18 01:17:57;;;;;;;83.35;18.77;;;12.90;99.90;;;;;;4948036;28;20047;-72
2022/10/18 01:20:54;;;;;;;22.83;18.10;;;12.90;99.90;;;;;;4889434;28;20048;-71
2022/10/18 01:23:46;;;;;;;28.83;19.15;;;12.80;99.90;;;;;;4947789;28;20045;-70
2022/10/18 01:26:31;;;;;;;35.45;19.75;;;12.80;99.90;;;;;;4946000;28;20047;-74
2022/10/18 01:29:17;;;;;;;22.88;16.75;;;12.80;99.90;;;;;;4950363;28;20082;-72
2022/10/18 01:32:06;;;;;;;35.08;17.77;;;12.80;99.90;;;;;;4953310;28;20114;-72
2022/10/18 01:34:35;;;;;;;24.73;15.38;;;12.80;99.90;;;;;;4949354;28;20039;-70
2022/10/18 01:37:03;;;;;;;101.07;11.77;;;12.80;99.90;;;;;;4948894;28;20082;-75
2022/10/18 01:39:34;;;;;;;196.00;12.98;;;12.70;99.90;;;;;;4952669;28;20071;-73
2022/10/18 01:42:04;;;;;;;262.15;14.95;;;12.70;99.90;;;;;;4948284;28;20074;-70
2022/10/18 01:44:31;;;;;;;166.88;12.35;;;12.70;99.90;;;;;;4947864;28;20161;-73
2022/10/18 01:46:58;;;;;;;106.70;12.30;;;12.60;99.90;;;;;;4946969;28;20394;-69
2022/10/18 01:49:25;;;;;;;300.58;18.98;;;12.60;99.90;;;;;;4952259;28;20039;-75
2022/10/18 01:51:50;;;;;;;203.32;15.77;;;12.60;99.90;;;;;;4946206;28;20067;-71
2022/10/18 01:54:21;;;;;;;138.85;16.70;;;12.60;99.90;;;;;;4949693;28;20126;-72
2022/10/18 01:56:57;;;;;;;182.35;19.13;;;12.60;99.90;;;;;;4949636;28;20067;-70
2022/10/18 01:59:31;;;;;;;271.98;24.40;;;12.60;99.90;;;;;;4947881;28;20450;-71
2022/10/18 02:02:29;;;;;;;479.60;38.75;;;12.60;99.90;;;;;;4952581;28;20049;-70
2022/10/18 02:05:04;;;;;;;494.23;38.63;;;12.60;99.90;;;;;;4948444;28;20050;-72
2022/10/18 02:07:57;;;;;;;368.73;28.38;;;12.60;99.90;;;;;;4945954;28;20043;-71
2022/10/18 02:10:41;;;;;;;298.60;27.33;;;12.70;99.90;;;;;;4948819;28;20039;-72
2022/10/18 02:13:10;;;;;;;452.88;41.95;;;12.60;99.90;;;;;;4950033;28;21632;-70
2022/10/18 02:15:40;;;;;;;207.52;23.08;;;12.60;99.90;;;;;;4945302;28;20051;-70
2022/10/18 02:18:12;;;;;;;75.85;18.25;;;12.60;99.90;;;;;;4942669;28;20106;-71
2022/10/18 02:20:38;;;;;;;168.70;24.17;;;12.60;99.90;;;;;;4943478;28;20042;-70
2022/10/18 02:23:07;;;;;;;243.27;28.02;;;12.60;99.90;;;;;;4944831;28;20043;-70
2022/10/18 02:25:34;;;;;;;259.75;27.98;;;12.60;99.90;;;;;;4949569;28;20533;-73
2022/10/18 02:28:01;;;;;;;423.45;43.20;;;12.60;99.90;;;;;;4949158;28;20062;-73
2022/10/18 02:30:33;;;;;;;352.52;38.72;;;12.60;99.90;;;;;;4936328;28;20126;-73
2022/10/18 02:33:06;;;;;;;195.10;23.42;;;12.60;99.90;;;;;;4945143;28;20151;-71
2022/10/18 02:35:38;;;;;;;386.98;36.38;;;12.60;99.90;;;;;;4945282;28;20043;-70
2022/10/18 02:38:05;;;;;;;126.53;21.25;;;12.60;99.90;;;;;;4948664;28;20046;-70
2022/10/18 02:40:31;;;;;;;143.73;21.65;;;12.60;99.90;;;;;;4948227;28;20051;-73
2022/10/18 02:42:58;;;;;;;278.35;36.63;;;12.60;99.90;;;;;;4945489;28;20044;-75
2022/10/18 02:45:24;;;;;;;142.55;22.65;;;12.60;99.90;;;;;;4940337;28;20043;-72
2022/10/18 02:47:51;;;;;;;170.63;24.20;;;12.50;99.90;;;;;;4943803;28;20039;-70
2022/10/18 02:50:17;;;;;;;444.48;44.67;;;12.60;99.90;;;;;;4952406;28;20047;-74
2022/10/18 02:52:42;;;;;;;164.70;24.98;;;12.50;99.90;;;;;;4945635;28;20058;-70
2022/10/18 02:55:08;;;;;;;360.88;43.85;;;12.50;99.90;;;;;;4958013;28;20065;-71
2022/10/18 02:57:35;;;;;;;85.60;21.70;;;12.50;99.90;;;;;;4948928;28;20063;-71
2022/10/18 03:00:01;;;;;;;271.48;32.13;;;12.50;99.90;;;;;;4953461;28;20046;-70
2022/10/18 03:02:26;;;;;;;76.68;19.00;;;12.50;99.90;;;;;;4951377;28;20054;-70
2022/10/18 03:04:52;;;;;;;37.75;18.40;;;12.40;99.90;;;;;;4950115;28;20043;-71
2022/10/18 03:07:17;;;;;;;122.38;23.42;;;12.50;99.90;;;;;;4947667;28;20040;-70
2022/10/18 03:09:43;;;;;;;62.05;19.85;;;12.40;99.90;;;;;;4946965;28;20040;-70
2022/10/18 03:12:08;;;;;;;63.20;17.48;;;12.30;99.90;;;;;;4950991;28;20047;-74
2022/10/18 03:14:34;;;;;;;80.80;20.90;;;12.40;99.90;;;;;;4955073;28;20050;-77
2022/10/18 03:16:59;;;;;;;57.30;18.38;;;12.40;99.90;;;;;;4953012;28;20505;-70
2022/10/18 03:19:25;;;;;;;52.70;18.02;;;12.30;99.90;;;;;;4952358;28;20494;-71
2022/10/18 03:21:51;;;;;;;138.60;25.30;;;12.30;99.90;;;;;;4947997;28;20430;-70
2022/10/18 03:24:16;;;;;;;264.75;30.77;;;12.30;99.90;;;;;;4945448;28;20574;-72
2022/10/18 03:26:42;;;;;;;51.75;17.00;;;12.30;99.90;;;;;;4947434;28;20046;-70
2022/10/18 03:29:09;;;;;;;36.42;16.83;;;12.20;99.90;;;;;;4950362;28;20050;-72
2022/10/18 03:31:35;;;;;;;132.45;21.80;;;12.30;99.90;;;;;;4952038;28;20043;-73
2022/10/18 03:34:00;;;;;;;60.15;15.13;;;12.30;99.90;;;;;;4952567;28;20058;-70
2022/10/18 03:36:26;;;;;;;106.45;17.58;;;12.20;99.90;;;;;;4951903;28;20047;-74
2022/10/18 03:38:51;;;;;;;124.93;18.85;;;12.30;99.90;;;;;;4955767;28;20035;-74
2022/10/18 03:41:17;;;;;;;53.60;17.15;;;12.20;99.90;;;;;;4951856;28;20466;-72
2022/10/18 03:43:43;;;;;;;37.17;16.33;;;12.20;99.90;;;;;;4949070;28;20054;-70
2022/10/18 03:46:08;;;;;;;57.50;18.73;;;12.20;99.90;;;;;;4952354;28;20094;-73
2022/10/18 03:48:34;;;;;;;225.27;32.33;;;12.20;99.90;;;;;;4954140;28;20043;-70
2022/10/18 03:50:59;;;;;;;318.70;37.47;;;12.20;99.90;;;;;;4947010;28;20047;-71
2022/10/18 03:53:25;;;;;;;104.38;23.02;;;12.10;99.90;;;;;;4954622;28;20050;-71
2022/10/18 03:55:51;;;;;;;274.42;34.95;;;12.20;99.90;;;;;;4938141;28;20047;-70
2022/10/18 03:58:17;;;;;;;229.27;30.17;;;12.10;99.90;;;;;;4947141;28;20179;-70
2022/10/18 04:00:43;;;;;;;66.40;19.08;;;12.10;99.90;;;;;;4953107;28;20118;-73
2022/10/18 04:03:08;;;;;;;213.10;29.38;;;12.10;99.90;;;;;;4952571;28;20094;-70
2022/10/18 04:05:35;;;;;;;158.75;27.05;;;12.00;99.90;;;;;;4951200;28;20050;-71
2022/10/18 04:08:01;;;;;;;135.27;25.15;;;12.00;99.90;;;;;;4948354;28;20409;-70
2022/10/18 04:10:27;;;;;;;187.13;27.85;;;12.00;99.90;;;;;;4949878;28;20039;-70
2022/10/18 04:12:52;;;;;;;226.15;29.83;;;12.00;99.90;;;;;;4954637;28;20077;-71
2022/10/18 04:15:18;;;;;;;190.02;31.30;;;12.00;99.90;;;;;;4950836;28;20053;-72
2022/10/18 04:17:44;;;;;;;203.18;30.77;;;12.00;99.90;;;;;;4964783;28;20055;-73
2022/10/18 04:20:10;;;;;;;203.90;29.90;;;12.00;99.90;;;;;;4948335;28;20047;-70
2022/10/18 04:22:35;;;;;;;179.52;30.08;;;12.00;99.90;;;;;;4950052;28;20043;-70
2022/10/18 04:25:01;;;;;;;111.57;24.77;;;12.00;99.90;;;;;;4951345;28;20508;-71
2022/10/18 04:27:26;;;;;;;197.43;32.85;;;12.00;99.90;;;;;;4956497;28;20039;-73
2022/10/18 04:29:52;;;;;;;125.00;29.42;;;12.00;99.90;;;;;;4947563;28;20052;-72
2022/10/18 04:32:18;;;;;;;79.95;25.25;;;12.10;99.90;;;;;;4949446;28;21864;-70
2022/10/18 04:34:43;;;;;;;152.18;29.92;;;12.00;99.90;;;;;;4948300;28;20035;-70
2022/10/18 04:37:09;;;;;;;331.08;43.42;;;12.10;99.90;;;;;;4947660;28;20102;-71
2022/10/18 04:39:34;;;;;;;233.38;37.22;;;12.10;99.90;;;;;;4947888;28;20051;-70
2022/10/18 04:42:00;;;;;;;84.90;24.38;;;12.10;99.90;;;;;;4951016;28;20054;-73
2022/10/18 04:44:25;;;;;;;136.32;29.65;;;12.00;99.90;;;;;;4955495;28;20130;-71
2022/10/18 04:46:51;;;;;;;171.52;30.08;;;12.00;99.90;;;;;;4953224;28;20035;-73
2022/10/18 04:49:16;;;;;;;82.35;26.35;;;12.00;99.90;;;;;;4951919;28;20051;-70
2022/10/18 04:51:42;;;;;;;416.42;46.47;;;12.00;99.90;;;;;;4954617;28;20102;-70
2022/10/18 04:54:07;;;;;;;95.68;26.20;;;12.10;99.90;;;;;;4944538;28;20055;-71
2022/10/18 04:56:33;;;;;;;57.25;24.35;;;12.10;99.90;;;;;;4953046;28;20462;-70
2022/10/18 04:58:58;;;;;;;314.42;42.03;;;12.10;99.90;;;;;;4956689;28;20404;-73
2022/10/18 05:01:24;;;;;;;100.40;27.00;;;12.10;99.90;;;;;;4953981;28;20082;-71
2022/10/18 05:03:53;;;;;;;435.35;49.38;;;12.10;99.90;;;;;;4950119;28;20078;-71
2022/10/18 05:06:19;;;;;;;181.88;31.88;;;12.20;99.90;;;;;;4955731;28;20047;-70
2022/10/18 05:08:45;;;;;;;150.73;27.63;;;12.20;99.90;;;;;;4952553;28;20393;-70
2022/10/18 05:11:11;;;;;;;327.52;41.53;;;12.20;99.90;;;;;;4952302;28;20126;-70
2022/10/18 05:13:37;;;;;;;117.30;26.63;;;12.20;99.90;;;;;;4951237;28;20138;-70
2022/10/18 05:16:03;;;;;;;142.18;29.80;;;12.20;99.90;;;;;;4955167;28;20047;-70
2022/10/18 05:18:29;;;;;;;94.97;24.45;;;12.20;99.90;;;;;;4947559;29;20050;-71
2022/10/18 05:20:55;;;;;;;232.57;33.88;;;12.30;99.90;;;;;;4956316;28;20424;-70
2022/10/18 05:23:21;;;;;;;341.77;40.15;;;12.20;99.90;;;;;;4953590;28;20383;-71
2022/10/18 05:25:47;;;;;;;182.50;29.55;;;12.20;99.90;;;;;;4967604;28;20051;-70
2022/10/18 05:28:13;;;;;;;87.20;24.10;;;12.20;99.90;;;;;;4952617;28;20054;-72
2022/10/18 05:30:39;;;;;;;67.43;22.30;;;12.20;99.90;;;;;;4950558;28;20138;-71
2022/10/18 05:33:05;;;;;;;175.82;29.20;;;12.20;99.90;;;;;;4955760;28;20043;-71
2022/10/18 05:35:30;;;;;;;39.03;18.92;;;12.20;99.90;;;;;;4957143;28;20523;-71
2022/10/18 05:37:56;;;;;;;48.35;19.98;;;12.20;99.90;;;;;;4964054;28;20047;-71
2022/10/18 05:40:22;;;;;;;112.35;24.65;;;12.20;99.90;;;;;;4949396;29;20390;-70
2022/10/18 05:42:50;;;;;;;211.90;30.98;;;12.10;99.90;;;;;;4954331;28;20137;-70
2022/10/18 05:45:16;;;;;;;198.77;26.33;;;12.10;99.90;;;;;;4951544;28;20043;-70
2022/10/18 05:47:42;;;;;;;103.78;20.83;;;12.10;99.90;;;;;;4957574;28;20122;-70
2022/10/18 05:50:07;;;;;;;63.65;16.73;;;12.00;99.90;;;;;;4950886;29;20046;-71
2022/10/18 05:52:33;;;;;;;90.25;18.90;;;12.00;99.90;;;;;;4948674;28;20047;-71
2022/10/18 05:54:59;;;;;;;59.25;16.85;;;12.00;99.90;;;;;;4952886;28;20406;-73
2022/10/18 05:57:24;;;;;;;92.57;19.77;;;11.90;99.90;;;;;;4951466;28;20043;-71
2022/10/18 05:59:50;;;;;;;120.45;20.90;;;11.90;99.90;;;;;;4950886;29;20393;-71
2022/10/18 06:02:15;;;;;;;184.88;23.73;;;11.90;99.90;;;;;;4957744;28;20051;-70
2022/10/18 06:04:41;;;;;;;224.18;28.98;;;11.90;99.90;;;;;;4952265;28;20043;-70
2022/10/18 06:07:08;;;;;;;201.95;25.90;;;11.80;99.90;;;;;;4952557;28;20147;-72
2022/10/18 06:09:34;;;;;;;133.88;22.52;;;11.80;99.90;;;;;;4940781;28;20055;-72
2022/10/18 06:11:59;;;;;;;122.22;19.20;;;11.80;99.90;;;;;;4946809;28;20049;-70
2022/10/18 06:14:25;;;;;;;170.70;20.77;;;11.80;99.90;;;;;;4951751;28;20039;-71
2022/10/18 06:16:50;;;;;;;253.02;24.98;;;11.80;99.90;;;;;;4950726;28;20081;-70
2022/10/18 06:19:16;;;;;;;233.40;24.45;;;11.70;99.90;;;;;;4951026;28;20043;-74
2022/10/18 06:21:43;;;;;;;174.15;21.48;;;11.70;99.90;;;;;;4950218;28;20102;-71
2022/10/18 06:24:08;;;;;;;348.45;31.98;;;11.70;99.90;;;;;;4950737;29;20126;-73
2022/10/18 06:26:34;;;;;;;242.00;23.58;;;11.70;99.90;;;;;;4952975;28;20501;-73
2022/10/18 06:28:59;;;;;;;86.15;14.13;;;11.70;99.90;;;;;;4950311;28;20148;-72
2022/10/18 06:31:25;;;;;;;106.38;16.85;;;11.70;99.90;;;;;;4951753;28;20059;-72
2022/10/18 06:33:51;;;;;;;79.82;15.25;;;11.70;99.90;;;;;;4955849;28;20047;-72
2022/10/18 06:36:20;;;;;;;112.20;18.77;;;11.70;99.90;;;;;;4958587;28;20050;-73
2022/10/18 06:38:46;;;;;;;114.70;16.17;;;11.60;99.90;;;;;;4953946;28;20045;-75
2022/10/18 06:41:12;;;;;;;121.03;16.05;;;11.70;99.90;;;;;;4944391;28;20606;-71
2022/10/18 06:43:38;;;;;;;106.75;12.75;;;11.60;99.90;;;;;;4953653;29;20077;-72
2022/10/18 06:46:06;;;;;;;204.75;19.52;;;11.60;99.90;;;;;;4948997;28;20045;-72
2022/10/18 06:48:34;;;;;;;288.50;23.20;;;11.70;99.90;;;;;;4954458;28;20482;-72
2022/10/18 06:51:02;;;;;;;151.13;15.18;;;11.60;99.90;;;;;;4955578;28;20430;-71
2022/10/18 06:53:29;;;;;;;177.40;17.67;;;11.60;99.90;;;;;;4951511;28;20046;-72
2022/10/18 06:56:02;;;;;;;63.78;11.52;;;11.60;99.90;;;;;;4957853;28;20074;-72
2022/10/18 06:58:29;;;;;;;147.02;14.70;;;11.60;99.90;;;;;;4955049;28;20043;-72
2022/10/18 07:00:55;;;;;;;160.05;16.45;;;11.60;99.90;;;;;;4954260;28;20114;-71
2022/10/18 07:03:21;;;;;;;267.27;24.83;;;11.60;99.90;;;;;;4947766;28;20565;-71
2022/10/18 07:05:49;;;;;;;175.82;18.08;;;11.60;99.90;;;;;;4956664;28;20105;-72
2022/10/18 07:08:16;;;;;;;83.65;12.43;;;11.60;99.90;;;;;;4960042;28;20109;-74
2022/10/18 07:10:42;;;;;;;101.07;14.60;;;11.60;99.90;;;;;;4949907;28;20052;-72
2022/10/18 07:13:07;;;;;;;201.63;22.33;;;11.60;99.90;;;;;;4950380;28;20102;-74
2022/10/18 07:15:33;;;;;;;249.50;24.65;;;11.60;99.90;;;;;;4952103;28;20050;-72
2022/10/18 07:17:59;;;;;;;183.68;18.98;;;11.70;99.90;;;;;;4949729;28;20047;-72
2022/10/18 07:20:24;;;;;;;205.75;20.83;;;11.70;99.90;;;;;;4950043;28;20054;-73
2022/10/18 07:22:54;;;;;;;254.43;26.77;;;11.70;99.90;;;;;;4951603;28;20102;-72
2022/10/18 07:25:20;;;;;;;164.65;21.27;;;11.80;99.90;;;;;;4952885;28;20086;-72
2022/10/18 07:27:45;;;;;;;181.95;24.23;;;11.80;99.90;;;;;;4951477;29;20043;-74
2022/10/18 07:30:11;;;;;;;51.40;15.25;;;11.80;99.90;;;;;;4957324;28;20134;-73
2022/10/18 07:32:37;;;;;;;65.70;14.70;;;11.90;99.90;;;;;;4956391;28;20043;-71
2022/10/18 07:35:02;;;;;;;67.50;14.18;;;11.90;99.90;;;;;;4959157;28;20771;-71
2022/10/18 07:37:29;;;;;;;126.07;17.70;;;11.90;99.90;;;;;;4954919;28;20050;-73
2022/10/18 07:39:54;;;;;;;112.05;14.25;;;12.00;99.90;;;;;;4954343;28;20062;-72
2022/10/18 07:42:20;;;;;;;131.13;16.50;;;12.00;99.90;;;;;;4951865;28;20055;-71
2022/10/18 07:44:46;;;;;;;130.02;18.23;;;12.00;99.90;;;;;;4955230;28;20058;-71
2022/10/18 07:47:11;;;;;;;58.95;12.82;;;12.00;99.90;;;;;;4951920;28;20773;-71
2022/10/18 07:49:37;;;;;;;115.70;13.82;;;12.00;99.90;;;;;;4937646;29;20046;-71
2022/10/18 07:52:02;;;;;;;75.15;12.55;;;12.00;99.90;;;;;;4951569;28;20041;-72
2022/10/18 07:54:29;;;;;;;110.28;14.95;;;12.00;99.90;;;;;;4952807;28;20055;-72
2022/10/18 07:56:54;;;;;;;103.57;14.48;;;11.90;99.90;;;;;;4955349;28;20039;-71
2022/10/18 07:59:20;;;;;;;107.35;16.42;;;11.90;99.90;;;;;;4951297;28;20069;-71
2022/10/18 08:01:45;;;;;;;131.88;18.80;;;12.00;99.90;;;;;;4949825;28;20039;-74
2022/10/18 08:04:11;;;;;;;19.88;12.25;;;12.00;99.90;;;;;;4954113;28;20137;-74
2022/10/18 08:06:36;;;;;;;46.55;15.00;;;12.10;99.90;;;;;;4955001;28;20074;-71
2022/10/18 08:09:02;;;;;;;35.53;16.17;;;12.20;99.90;;;;;;4957466;28;20050;-77
2022/10/18 08:11:28;;;;;;;39.42;17.58;;;12.20;99.90;;;;;;4949196;28;20062;-71
2022/10/18 08:13:53;;;;;;;64.60;21.42;;;12.30;99.90;;;;;;4955038;28;20984;-71
2022/10/18 08:16:22;;;;;;;84.40;24.42;;;12.40;99.90;;;;;;4957577;28;20498;-74
2022/10/18 08:18:48;;;;;;;68.65;16.98;;;12.50;99.90;;;;;;4955057;28;20129;-73
2022/10/18 08:21:15;;;;;;;43.60;13.57;;;12.50;99.90;;;;;;4955044;28;20134;-73
2022/10/18 08:23:41;;;;;;;46.53;12.60;;;12.50;99.90;;;;;;4948259;28;20055;-74
2022/10/18 08:26:09;;;;;;;29.75;12.77;;;12.40;99.90;;;;;;4957287;28;20047;-71
2022/10/18 08:28:35;;;;;;;73.85;14.88;;;12.50;99.90;;;;;;4955086;28;20043;-71
2022/10/18 08:31:05;;;;;;;53.10;13.45;;;12.60;99.90;;;;;;4948936;28;20046;-70
2022/10/18 08:33:32;;;;;;;30.77;12.18;;;12.60;99.90;;;;;;4950017;28;20093;-71
2022/10/18 08:35:59;;;;;;;18.77;12.57;;;12.60;99.90;;;;;;4955520;28;20146;-70
2022/10/18 08:38:27;;;;;;;32.63;13.50;;;12.70;99.90;;;;;;4956600;28;20430;-70
2022/10/18 08:40:53;;;;;;;44.13;10.68;;;12.70;99.90;;;;;;4953509;28;20051;-70
2022/10/18 08:43:45;;;;;;;69.60;11.25;;;12.80;99.90;;;;;;4952478;28;20486;-71
2022/10/18 08:46:12;;;;;;;60.20;11.57;;;12.80;99.90;;;;;;4951470;28;20054;-70
2022/10/18 08:48:50;;;;;;;32.33;10.02;;;12.70;99.90;;;;;;4958520;28;20490;-70
2022/10/18 08:51:28;;;;;;;28.38;10.93;;;12.70;99.90;;;;;;4953558;28;20505;-71
2022/10/18 08:54:10;;;;;;;42.70;12.20;;;12.80;99.90;;;;;;4952406;28;20090;-70
2022/10/18 08:56:38;;;;;;;63.93;14.43;;;12.80;99.90;;;;;;4955449;28;20043;-71
2022/10/18 08:59:12;;;;;;;15.55;11.60;;;12.90;99.90;;;;;;4955742;28;20070;-71
2022/10/18 09:02:00;;;;;;;19.13;12.80;;;13.00;99.90;;;;;;4956981;28;21808;-71
2022/10/18 09:04:39;;;;;;;19.95;12.00;;;13.10;99.90;;;;;;4948839;28;20489;-70
2022/10/18 09:07:33;;;;;;;19.35;11.35;;;13.20;99.90;;;;;;4950331;28;20039;-70
2022/10/18 09:10:06;;;;;;;16.92;10.98;;;13.20;99.90;;;;;;4956804;28;20039;-70
2022/10/18 09:12:42;;;;;;;16.35;10.82;;;13.20;99.90;;;;;;4954613;28;20042;-70
2022/10/18 09:15:31;;;;;;;16.92;10.95;;;13.20;99.90;;;;;;4950980;28;20051;-70
2022/10/18 09:18:16;;;;;;;16.45;10.27;;;13.20;99.90;;;;;;4974034;28;20442;-74
2022/10/18 09:20:57;;;;;;;17.63;11.25;;;13.20;99.90;;;;;;4945804;28;20093;-71
2022/10/18 09:23:26;;;;;;;20.05;10.15;;;13.20;99.90;;;;;;4944838;28;20047;-70
2022/10/18 09:26:00;;;;;;;17.42;11.00;;;13.10;99.90;;;;;;4948351;28;20031;-73
2022/10/18 09:28:36;;;;;;;20.27;10.98;;;13.10;99.90;;;;;;4955505;28;20108;-71
2022/10/18 09:31:20;;;;;;;18.38;11.15;;;13.10;99.90;;;;;;4944189;28;20066;-71
2022/10/18 09:34:04;;;;;;;15.60;10.30;;;13.20;99.90;;;;;;4949078;28;20416;-70
2022/10/18 09:36:36;;;;;;;22.55;10.93;;;13.20;99.90;;;;;;4948420;28;20047;-71
2022/10/18 09:39:12;;;;;;;17.30;10.77;;;13.20;99.90;;;;;;4952420;28;20062;-75
2022/10/18 09:41:49;;;;;;;18.50;10.43;;;13.20;99.90;;;;;;4947975;28;20047;-70
2022/10/18 09:44:23;;;;;;;16.70;10.35;;;13.20;99.90;;;;;;4947537;28;20042;-70
2022/10/18 09:46:56;;;;;;;22.20;10.02;;;13.30;99.90;;;;;;4950899;28;20067;-70
2022/10/18 09:49:44;;;;;;;22.50;9.90;;;13.40;99.90;;;;;;4953538;28;20051;-70
2022/10/18 09:52:26;;;;;;;15.20;8.18;;;13.40;99.90;;;;;;4956685;28;20058;-73
2022/10/18 09:55:00;;;;;;;17.20;8.25;;;13.50;99.90;;;;;;4955965;28;20093;-70
2022/10/18 09:57:38;;;;;;;24.23;8.10;;;13.50;99.90;;;;;;4952928;28;20047;-70
2022/10/18 10:00:12;;;;;;;17.63;6.22;;;13.60;99.90;;;;;;4948733;28;20131;-71
2022/10/18 10:02:38;;;;;;;23.52;6.05;;;13.60;99.90;;;;;;4949381;28;20065;-70
2022/10/18 10:05:05;;;;;;;17.15;6.28;;;13.70;99.90;;;;;;4947730;28;20038;-70
2022/10/18 10:07:39;;;;;;;12.80;5.03;;;13.80;99.90;;;;;;4950179;28;20047;-73
2022/10/18 10:10:17;;;;;;;14.95;5.00;;;13.80;99.90;;;;;;4947427;28;20043;-73
2022/10/18 10:12:43;;;;;;;17.98;5.60;;;13.90;99.90;;;;;;4943090;28;20054;-70
2022/10/18 10:15:25;;;;;;;14.90;4.32;;;14.00;99.90;;;;;;4952207;28;20043;-70
2022/10/18 10:18:02;;;;;;;;;;;14.10;99.90;;;;;;4944120;28;20048;-74
2022/10/18 10:20:32;;;;;;;12.30;3.95;;;14.20;99.90;;;;;;4949786;28;19918;-70
2022/10/18 10:23:18;;;;;;;16.23;3.80;;;14.30;99.90;;;;;;4947380;28;20106;-70
2022/10/18 10:25:50;;;;;;;15.23;4.00;;;14.30;99.90;;;;;;4952801;28;20103;-73
2022/10/18 10:28:20;;;;;;;16.25;4.63;;;14.40;99.90;;;;;;4955303;28;20089;-70
2022/10/18 10:30:46;;;;;;;13.52;3.97;;;14.60;99.90;;;;;;4945499;28;20051;-74
2022/10/18 10:33:34;;;;;;;17.45;3.47;;;14.90;99.90;;;;;;4949874;28;20451;-71
2022/10/18 10:36:03;;;;;;;17.98;2.85;;;15.10;99.90;;;;;;4950054;28;20047;-69
2022/10/18 10:38:30;;;;;;;13.60;2.55;;;15.20;99.90;;;;;;4942734;28;20051;-71
2022/10/18 10:40:57;;;;;;;15.05;2.58;;;15.30;99.90;;;;;;4957808;28;20102;-70
2022/10/18 10:43:31;;;;;;;13.32;2.38;;;15.30;99.90;;;;;;4964888;28;20055;-69
2022/10/18 10:46:04;;;;;;;14.23;2.65;;;15.40;99.90;;;;;;4948366;28;20039;-72
2022/10/18 10:48:40;;;;;;;14.30;2.20;;;15.40;99.90;;;;;;4955611;28;20039;-71
2022/10/18 10:51:08;;;;;;;16.15;2.83;;;15.50;99.90;;;;;;4949858;28;20049;-72
2022/10/18 10:53:36;;;;;;;13.55;2.60;;;15.60;99.90;;;;;;4965786;28;20043;-72
2022/10/18 10:56:04;;;;;;;12.38;2.53;;;15.70;99.90;;;;;;4952292;28;20054;-74
2022/10/18 10:58:38;;;;;;;12.73;2.00;;;15.70;99.90;;;;;;4951626;28;20082;-71
2022/10/18 11:01:23;;;;;;;10.45;2.17;;;15.70;99.90;;;;;;4950281;28;20142;-71
2022/10/18 11:03:51;;;;;;;13.25;2.58;;;15.90;99.90;;;;;;4963537;28;20070;-72
2022/10/18 11:06:52;;;;;;;17.55;2.38;;;16.00;99.90;;;;;;4955756;28;20035;-72
2022/10/18 11:09:49;;;;;;;12.57;2.25;;;16.30;99.90;;;;;;4942605;28;20038;-73
2022/10/18 11:12:36;;;;;;;15.57;2.63;;;16.50;99.90;;;;;;4954972;28;20054;-69
2022/10/18 11:15:23;;;;;;;15.77;2.40;;;16.90;99.90;;;;;;4956109;28;20046;-69
2022/10/18 11:18:17;;;;;;;15.98;2.88;;;17.20;99.90;;;;;;4962098;28;20414;-69
2022/10/18 11:20:49;;;;;;;15.88;2.92;;;17.70;99.90;;;;;;4954652;28;20393;-69
2022/10/18 11:23:17;;;;;;;8.40;2.08;;;18.10;99.90;;;;;;4960351;28;20054;-69
2022/10/18 11:26:10;;;;;;;14.45;2.05;;;18.30;99.90;;;;;;4964762;28;20049;-69
2022/10/18 11:28:35;;;;;;;8.57;1.88;;;18.50;99.90;;;;;;4964928;28;20086;-69
2022/10/18 11:31:20;;;;;;;10.80;2.08;;;18.70;99.90;;;;;;4957898;28;20051;-70
2022/10/18 11:34:21;;;;;;;13.13;2.63;;;18.90;99.90;;;;;;4955398;28;20078;-71
2022/10/18 11:36:49;;;;;;;15.90;2.42;;;19.10;99.90;;;;;;4958213;28;20067;-70
2022/10/18 11:39:22;;;;;;;14.35;2.13;;;19.30;99.90;;;;;;4961149;28;20038;-69
2022/10/18 11:41:56;;;;;;;10.90;2.13;;;19.20;99.90;;;;;;4957933;28;20051;-72
2022/10/18 11:44:55;;;;;;;9.20;1.90;;;19.20;99.90;;;;;;4955548;28;20105;-71
2022/10/18 11:47:30;;;;;;;9.55;2.05;;;19.20;99.90;;;;;;4949943;28;20114;-69
2022/10/18 11:50:15;;;;;;;9.77;2.08;;;19.30;99.90;;;;;;4953496;28;20057;-69
2022/10/18 11:52:49;;;;;;;12.40;1.83;;;19.30;99.90;;;;;;4956299;28;20078;-70
2022/10/18 11:55:38;;;;;;;10.85;1.90;;;19.40;99.90;;;;;;4947140;28;20130;-69
2022/10/18 11:58:16;;;;;;;8.48;1.73;;;19.50;99.90;;;;;;4952853;28;20398;-69
2022/10/18 12:00:47;;;;;;;11.38;2.15;;;19.70;99.90;;;;;;4946569;28;20391;-71
2022/10/18 12:03:33;;;;;;;10.40;1.83;;;20.00;99.90;;;;;;4958478;28;20058;-70
2022/10/18 12:06:05;;;;;;;13.15;1.95;;;20.20;99.90;;;;;;4958326;28;20055;-69
2022/10/18 12:08:36;;;;;;;11.43;2.53;;;20.20;99.90;;;;;;4958941;28;20398;-71
2022/10/18 12:11:08;;;;;;;11.80;2.15;;;20.40;99.90;;;;;;4954575;28;20654;-69
2022/10/18 12:13:56;;;;;;;9.50;2.10;;;20.60;99.90;;;;;;4959436;28;20043;-69
2022/10/18 12:16:23;;;;;;;10.93;1.70;;;20.80;99.90;;;;;;4947341;28;20046;-69
2022/10/18 12:18:56;;;;;;;10.75;1.90;;;20.80;99.90;;;;;;4950589;28;20043;-70
2022/10/18 12:21:24;;;;;;;11.60;2.20;;;20.80;99.90;;;;;;4949755;28;20043;-70
2022/10/18 12:24:10;;;;;;;5.93;1.60;;;20.80;99.90;;;;;;4951698;28;20535;-69
2022/10/18 12:26:36;;;;;;;9.82;2.28;;;20.90;99.90;;;;;;4953561;28;21314;-70
2022/10/18 12:29:22;;;;;;;10.93;1.92;;;21.20;99.90;;;;;;4951920;28;20047;-70
2022/10/18 12:31:56;;;;;;;12.35;2.47;;;21.40;99.90;;;;;;4943260;28;20511;-70
2022/10/18 12:34:21;;;;;;;12.25;1.98;;;21.40;99.90;;;;;;4956391;28;20047;-71
2022/10/18 12:37:01;;;;;;;8.40;1.98;;;21.50;99.90;;;;;;4957039;28;20043;-69
2022/10/18 12:39:39;;;;;;;7.00;1.90;;;21.60;99.90;;;;;;4952783;28;20037;-71
2022/10/18 12:42:05;;;;;;;9.30;1.80;;;21.70;99.90;;;;;;4949735;28;20133;-71